Hlavní strana
METAR-TAF:

METAR-TAF

Letiště :

Hanover County Municipal Airport

Richmond / Ashland, Virginie, Spojené státy americké

zeměpisná šířka: 37-42-29N, zeměpisná délka: 077-26-04W, výška: 62 m

Aktuální stav počasí

Zpráva byla vytvořena před 18 minutami, v 09:54 UTC
Jižní vítr 3 kt
Teplota 12°C
Vlhkost vzduchu 88%
Tlak 1017 hPa
Viditelnost: 16.1 km
Oblačno až skoro zataženo ve výšce 10000 ft

METAR: KOFP 060954Z AUTO 19003KT 10SM BKN100 12/10 A3003 RMK AO2 SLP168 T01170100 $

Čas: 06:12 (10:12 UTC)


TAF: chybějící

Stav a předpovědi počasí z více než 4 000 letišť (zprávy METAR a TAF).

Červené a žluté tečky na mapě představují dostupné meteorologické stanice.

Když kurzor umístíte na tečku, zobrazí se název stanice.

Pak kliknutím zobrazíte stav a předpověď počasí.

Chcete-li změnit mapu, kliknutím na zelené tlačítko se znaménkem +mapu přiblížíte, kliknutím na zelené tlačítko se znaménkem – mapu oddálíte a kliknutím na zelené šipky přejdete na sousední mapy.


METAR-TAF: